createdAt,value
2018-09-01T00:00:57.202Z,1012.38
2018-09-01T00:01:57.163Z,1012.35
2018-09-01T00:02:57.153Z,1012.35
2018-09-01T00:03:57.141Z,1012.34
2018-09-01T00:04:57.149Z,1012.31
2018-09-01T00:05:57.111Z,1012.36
2018-09-01T00:06:57.098Z,1012.33
2018-09-01T00:07:57.099Z,1012.32
2018-09-01T00:08:57.077Z,1012.34
2018-09-01T00:09:57.090Z,1012.35
2018-09-01T00:10:57.058Z,1012.32
2018-09-01T00:11:57.047Z,1012.38
2018-09-01T00:12:57.033Z,1012.37
2018-09-01T00:13:57.019Z,1012.35
2018-09-01T00:14:57.037Z,1012.34
2018-09-01T00:15:57.001Z,1012.33
2018-09-01T00:16:56.986Z,1012.28
2018-09-01T00:17:56.972Z,1012.31
2018-09-01T00:18:56.969Z,1012.32
2018-09-01T00:19:56.980Z,1012.30
2018-09-01T00:20:56.939Z,1012.34
2018-09-01T00:21:56.929Z,1012.35
2018-09-01T00:22:56.923Z,1012.38
2018-09-01T00:23:56.913Z,1012.38
2018-09-01T00:24:56.921Z,1012.38
2018-09-01T00:25:56.884Z,1012.41
2018-09-01T00:26:56.876Z,1012.38
2018-09-01T00:27:57.358Z,1012.41
2018-09-01T00:28:56.851Z,1012.41
2018-09-01T00:29:56.958Z,1012.37
2018-09-01T00:30:57.070Z,1012.36
2018-09-01T00:31:56.863Z,1012.37
2018-09-01T00:32:56.938Z,1012.39
2018-09-01T00:33:56.885Z,1012.36
2018-09-01T00:34:57.162Z,1012.35
2018-09-01T00:35:56.901Z,1012.35
2018-09-01T00:36:56.765Z,1012.37
2018-09-01T00:37:56.797Z,1012.35
2018-09-01T00:38:56.839Z,1012.37
2018-09-01T00:39:56.765Z,1012.35
2018-09-01T00:40:57.082Z,1012.37
2018-09-01T00:41:56.700Z,1012.39
2018-09-01T00:42:56.911Z,1012.41
2018-09-01T00:43:56.751Z,1012.42
2018-09-01T00:44:56.735Z,1012.40
2018-09-01T00:45:56.680Z,1012.42
2018-09-01T00:46:56.649Z,1012.47
2018-09-01T00:47:56.638Z,1012.40
2018-09-01T00:48:56.628Z,1012.43
2018-09-01T00:49:56.652Z,1012.44
2018-09-01T00:50:56.741Z,1012.44
2018-09-01T00:51:56.590Z,1012.43
2018-09-01T00:52:56.582Z,1012.49
2018-09-01T00:53:56.568Z,1012.48
2018-09-01T00:54:56.653Z,1012.48
2018-09-01T00:55:56.682Z,1012.49
2018-09-01T00:56:56.624Z,1012.48
2018-09-01T00:57:56.527Z,1012.49
2018-09-01T00:58:56.578Z,1012.57
2018-09-01T00:59:56.497Z,1012.50
2018-09-01T01:00:56.494Z,1012.51
2018-09-01T01:01:56.502Z,1012.50
2018-09-01T01:02:56.476Z,1012.47
2018-09-01T01:03:56.462Z,1012.51
2018-09-01T01:04:57.144Z,1012.55
2018-09-01T01:05:56.498Z,1012.53
2018-09-01T01:06:56.744Z,1012.53
2018-09-01T01:07:56.514Z,1012.55
2018-09-01T01:08:56.985Z,1012.51
2018-09-01T01:09:56.391Z,1012.58
2018-09-01T01:10:56.555Z,1012.52
2018-09-01T01:11:56.547Z,1012.59
2018-09-01T01:12:57.245Z,1012.59
2018-09-01T01:13:56.364Z,1012.60
2018-09-01T01:14:56.332Z,1012.56
2018-09-01T01:15:56.466Z,1012.57
2018-09-01T01:16:56.307Z,1012.52
2018-09-01T01:17:56.541Z,1012.55
2018-09-01T01:18:56.947Z,1012.50
2018-09-01T01:19:56.275Z,1012.48
2018-09-01T01:20:56.381Z,1012.50
2018-09-01T01:21:56.251Z,1012.46
2018-09-01T01:22:56.245Z,1012.50
2018-09-01T01:23:56.267Z,1012.48
2018-09-01T01:24:56.218Z,1012.53
2018-09-01T01:25:56.228Z,1012.46
2018-09-01T01:26:56.200Z,1012.54
2018-09-01T01:27:56.186Z,1012.53
2018-09-01T01:28:56.173Z,1012.52
2018-09-01T01:29:56.164Z,1012.53
2018-09-01T01:30:56.654Z,1012.48
2018-09-01T01:31:56.146Z,1012.51
2018-09-01T01:32:56.132Z,1012.54
2018-09-01T01:33:56.116Z,1012.54
2018-09-01T01:34:56.107Z,1012.54
2018-09-01T01:35:56.716Z,1012.57
2018-09-01T01:36:56.089Z,1012.55
2018-09-01T01:37:56.156Z,1012.52
2018-09-01T01:38:56.067Z,1012.54
2018-09-01T01:39:56.654Z,1012.56
2018-09-01T01:40:56.056Z,1012.53
2018-09-01T01:41:56.058Z,1012.55
2018-09-01T01:42:56.021Z,1012.58
2018-09-01T01:43:56.084Z,1012.55
2018-09-01T01:44:56.007Z,1012.54
2018-09-01T01:45:56.129Z,1012.55
2018-09-01T01:46:55.965Z,1012.53
2018-09-01T01:47:56.048Z,1012.53
2018-09-01T01:48:56.049Z,1012.49
2018-09-01T01:49:56.329Z,1012.54
2018-09-01T01:50:56.159Z,1012.54
2018-09-01T01:51:55.915Z,1012.54
2018-09-01T01:52:55.987Z,1012.54
2018-09-01T01:53:56.090Z,1012.57
2018-09-01T01:54:55.892Z,1012.52
2018-09-01T01:55:55.887Z,1012.58
2018-09-01T01:56:55.863Z,1012.53
2018-09-01T01:57:55.848Z,1012.57
2018-09-01T01:58:55.900Z,1012.55
2018-09-01T01:59:55.821Z,1012.62
2018-09-01T02:00:55.841Z,1012.55
2018-09-01T02:01:55.805Z,1012.56
2018-09-01T02:02:55.888Z,1012.58
2018-09-01T02:03:55.824Z,1012.56
2018-09-01T02:04:55.771Z,1012.59
2018-09-01T02:05:55.779Z,1012.60
2018-09-01T02:06:55.748Z,1012.57
2018-09-01T02:07:55.738Z,1012.57
2018-09-01T02:08:55.762Z,1012.55
2018-09-01T02:09:55.717Z,1012.58
2018-09-01T02:10:55.724Z,1012.54
2018-09-01T02:11:55.696Z,1012.57
2018-09-01T02:12:55.681Z,1012.63
2018-09-01T02:13:55.673Z,1012.60
2018-09-01T02:14:55.653Z,1012.57
2018-09-01T02:15:55.673Z,1012.63
2018-09-01T02:16:55.830Z,1012.61
2018-09-01T02:17:55.628Z,1012.63
2018-09-01T02:18:55.609Z,1012.63
2018-09-01T02:19:56.046Z,1012.57
2018-09-01T02:20:55.739Z,1012.61
2018-09-01T02:21:55.575Z,1012.65
2018-09-01T02:22:55.573Z,1012.65
2018-09-01T02:23:55.569Z,1012.62
2018-09-01T02:24:55.591Z,1012.67
2018-09-01T02:25:55.559Z,1012.66
2018-09-01T02:26:55.518Z,1012.66
2018-09-01T02:27:55.730Z,1012.67
2018-09-01T02:28:55.828Z,1012.63
2018-09-01T02:29:55.484Z,1012.65
2018-09-01T02:30:55.541Z,1012.63
2018-09-01T02:31:55.499Z,1012.62
2018-09-01T02:32:55.458Z,1012.64
2018-09-01T02:33:55.515Z,1012.63
2018-09-01T02:34:55.437Z,1012.63
2018-09-01T02:35:56.114Z,1012.58
2018-09-01T02:36:55.420Z,1012.56
2018-09-01T02:37:55.505Z,1012.57
2018-09-01T02:38:55.382Z,1012.60
2018-09-01T02:39:55.619Z,1012.57
2018-09-01T02:40:55.733Z,1012.61
2018-09-01T02:41:55.432Z,1012.60
2018-09-01T02:42:55.340Z,1012.68
2018-09-01T02:43:55.336Z,1012.65
2018-09-01T02:44:55.318Z,1012.63
2018-09-01T02:45:55.327Z,1012.63
2018-09-01T02:46:55.298Z,1012.69
2018-09-01T02:47:55.285Z,1012.68
2018-09-01T02:48:55.270Z,1012.66
2018-09-01T02:49:55.264Z,1012.69
2018-09-01T02:50:55.280Z,1012.72
2018-09-01T02:51:55.238Z,1012.73
2018-09-01T02:52:55.234Z,1012.79
2018-09-01T02:53:55.214Z,1012.75
2018-09-01T02:54:55.206Z,1012.66
2018-09-01T02:55:55.222Z,1012.73
2018-09-01T02:56:55.181Z,1012.72
2018-09-01T02:57:55.178Z,1012.72
2018-09-01T02:58:55.157Z,1012.75
2018-09-01T02:59:55.147Z,1012.71
2018-09-01T03:00:55.165Z,1012.72
2018-09-01T03:01:55.124Z,1012.73
2018-09-01T03:02:55.120Z,1012.70
2018-09-01T03:03:55.108Z,1012.73
2018-09-01T03:04:55.093Z,1012.69
2018-09-01T03:05:55.102Z,1012.74
2018-09-01T03:06:55.075Z,1012.73
2018-09-01T03:07:55.058Z,1012.72
2018-09-01T03:08:55.045Z,1012.68
2018-09-01T03:09:55.036Z,1012.71
2018-09-01T03:10:55.044Z,1012.69
2018-09-01T03:11:55.016Z,1012.75
2018-09-01T03:12:55.003Z,1012.74
2018-09-01T03:13:54.994Z,1012.74
2018-09-01T03:14:54.981Z,1012.80
2018-09-01T03:15:54.992Z,1012.76
2018-09-01T03:16:54.961Z,1012.78
2018-09-01T03:17:54.947Z,1012.77
2018-09-01T03:18:54.939Z,1012.77
2018-09-01T03:19:54.929Z,1012.74
2018-09-01T03:20:54.931Z,1012.74
2018-09-01T03:21:54.902Z,1012.74
2018-09-01T03:22:54.894Z,1012.77
2018-09-01T03:23:54.877Z,1012.77
2018-09-01T03:24:54.868Z,1012.71
2018-09-01T03:25:54.876Z,1012.73
2018-09-01T03:26:54.846Z,1012.76
2018-09-01T03:27:54.837Z,1012.76
2018-09-01T03:28:54.829Z,1012.79
2018-09-01T03:29:54.812Z,1012.86
2018-09-01T03:30:54.828Z,1012.85
2018-09-01T03:31:54.795Z,1012.92
2018-09-01T03:32:54.783Z,1012.90
2018-09-01T03:33:54.767Z,1012.87
2018-09-01T03:34:54.758Z,1012.78
2018-09-01T03:35:54.768Z,1012.83
2018-09-01T03:36:54.742Z,1012.79
2018-09-01T03:37:54.723Z,1012.78
2018-09-01T03:38:54.717Z,1012.76
2018-09-01T03:39:54.706Z,1012.81
2018-09-01T03:40:54.710Z,1012.79
2018-09-01T03:41:54.677Z,1012.80
2018-09-01T03:42:54.662Z,1012.84
2018-09-01T03:43:54.660Z,1012.82
2018-09-01T03:44:54.644Z,1012.83
2018-09-01T03:45:54.664Z,1012.78
2018-09-01T03:46:54.625Z,1012.86
2018-09-01T03:47:54.610Z,1012.83
2018-09-01T03:48:54.604Z,1012.85
2018-09-01T03:49:54.588Z,1012.84
2018-09-01T03:50:54.602Z,1012.87
2018-09-01T03:51:54.565Z,1012.87
2018-09-01T03:52:54.553Z,1012.91
2018-09-01T03:53:54.540Z,1012.88
2018-09-01T03:54:45.908Z,1012.93
2018-09-01T03:55:28.249Z,1012.89
2018-09-01T03:56:06.127Z,1012.87
2018-09-01T03:56:42.246Z,1012.85
2018-09-01T05:40:05.828Z,1013.44
2018-09-01T05:41:11.323Z,1013.46
2018-09-01T05:42:16.803Z,1013.50
2018-09-01T05:43:22.288Z,1013.48
2018-09-01T05:43:57.738Z,1013.53
2018-09-01T05:44:32.889Z,1013.56
2018-09-01T05:45:08.044Z,1013.57
2018-09-01T05:46:13.546Z,1013.61
2018-09-01T05:47:19.022Z,1013.59
2018-09-01T05:47:58.374Z,1013.65
2018-09-01T05:49:04.767Z,1013.64
2018-09-01T05:50:10.270Z,1013.71
2018-09-01T05:50:55.322Z,1013.65
2018-09-01T05:51:35.902Z,1013.76
2018-09-01T05:52:18.846Z,1013.72
2018-09-01T05:53:01.495Z,1013.76
2018-09-01T05:53:44.757Z,1013.75
2018-09-01T05:54:29.518Z,1013.77
2018-09-01T05:55:12.473Z,1013.78
2018-09-01T05:55:57.260Z,1013.77
2018-09-01T05:56:38.101Z,1013.77
2018-09-01T05:57:23.469Z,1013.76
2018-09-01T05:58:08.817Z,1013.81
2018-09-01T05:58:49.079Z,1013.76
2018-09-01T05:59:54.555Z,1013.78
2018-09-01T06:01:20.180Z,1013.86
2018-09-01T06:02:20.146Z,1013.89
2018-09-01T06:03:20.136Z,1013.82
2018-09-01T06:04:20.126Z,1013.85
2018-09-01T06:05:20.112Z,1013.90
2018-09-01T06:06:20.221Z,1013.96
2018-09-01T06:07:20.092Z,1013.89
2018-09-01T06:08:20.077Z,1013.94
2018-09-01T06:09:20.068Z,1013.94
2018-09-01T06:10:20.053Z,1013.91
2018-09-01T06:11:20.066Z,1013.95
2018-09-01T06:12:20.028Z,1013.95
2018-09-01T06:13:20.020Z,1014.00
2018-09-01T06:14:20.005Z,1013.87
2018-09-01T06:15:19.993Z,1013.93
2018-09-01T06:16:20.005Z,1013.96
2018-09-01T06:17:19.989Z,1013.96
2018-09-01T06:18:19.962Z,1013.95
2018-09-01T06:19:20.120Z,1014.07
2018-09-01T06:20:19.937Z,1014.01
2018-09-01T06:21:19.944Z,1014.07
2018-09-01T06:22:19.917Z,1014.10
2018-09-01T06:23:19.904Z,1014.09
2018-09-01T06:24:19.893Z,1014.08
2018-09-01T06:25:19.882Z,1014.09
2018-09-01T06:26:19.886Z,1014.15
2018-09-01T06:27:19.854Z,1014.12
2018-09-01T06:28:19.847Z,1014.11
2018-09-01T06:29:19.835Z,1014.12
2018-09-01T06:30:19.937Z,1014.16
2018-09-01T06:31:19.831Z,1014.13
2018-09-01T06:32:19.797Z,1014.14
2018-09-01T06:33:19.783Z,1014.17
2018-09-01T06:34:19.824Z,1014.14
2018-09-01T06:35:19.797Z,1014.15
2018-09-01T06:36:19.767Z,1014.14
2018-09-01T06:37:19.738Z,1014.18
2018-09-01T06:38:19.725Z,1014.18
2018-09-01T06:39:19.710Z,1014.21
2018-09-01T06:40:19.706Z,1014.19
2018-09-01T06:41:19.713Z,1014.21
2018-09-01T06:42:19.676Z,1014.24
2018-09-01T06:43:19.682Z,1014.23
2018-09-01T06:44:19.652Z,1014.26
2018-09-01T06:45:19.647Z,1014.21
2018-09-01T06:46:19.653Z,1014.31
2018-09-01T06:47:19.624Z,1014.25
2018-09-01T06:48:19.610Z,1014.23
2018-09-01T06:49:19.595Z,1014.28
2018-09-01T06:50:19.579Z,1014.25
2018-09-01T06:51:19.598Z,1014.26
2018-09-01T06:52:19.566Z,1014.24
2018-09-01T06:53:19.547Z,1014.26
2018-09-01T06:54:19.544Z,1014.27
2018-09-01T06:55:19.532Z,1014.22
2018-09-01T06:56:19.532Z,1014.27
2018-09-01T06:57:19.508Z,1014.29
2018-09-01T06:58:19.487Z,1014.30
2018-09-01T06:59:19.477Z,1014.30
2018-09-01T07:00:19.469Z,1014.32
2018-09-01T07:01:19.477Z,1014.31
2018-09-01T07:02:19.444Z,1014.34
2018-09-01T07:03:19.432Z,1014.33
2018-09-01T07:04:19.418Z,1014.37
2018-09-01T07:05:19.411Z,1014.35
2018-09-01T07:06:19.419Z,1014.35
2018-09-01T07:07:19.384Z,1014.32
2018-09-01T07:08:19.374Z,1014.32
2018-09-01T07:09:19.366Z,1014.34
2018-09-01T07:10:19.346Z,1014.35
2018-09-01T07:11:19.356Z,1014.37
2018-09-01T07:12:19.331Z,1014.37
2018-09-01T07:13:19.311Z,1014.41
2018-09-01T07:14:19.308Z,1014.35
2018-09-01T07:15:19.295Z,1014.32
2018-09-01T07:16:19.299Z,1014.37
2018-09-01T07:17:19.271Z,1014.40
2018-09-01T07:18:19.254Z,1014.37
2018-09-01T07:19:19.243Z,1014.40
2018-09-01T07:20:19.234Z,1014.36
2018-09-01T07:21:19.244Z,1014.39
2018-09-01T07:22:19.210Z,1014.46
2018-09-01T07:23:19.206Z,1014.46
2018-09-01T07:24:19.185Z,1014.45
2018-09-01T07:25:19.175Z,1014.51
2018-09-01T07:26:19.184Z,1014.50
2018-09-01T07:27:19.151Z,1014.54
2018-09-01T07:28:19.143Z,1014.56
2018-09-01T07:29:19.125Z,1014.54
2018-09-01T07:30:19.203Z,1014.55
2018-09-01T07:31:19.553Z,1014.54
2018-09-01T07:32:19.095Z,1014.61
2018-09-01T07:33:19.085Z,1014.60
2018-09-01T07:34:19.067Z,1014.60
2018-09-01T07:35:19.054Z,1014.57
2018-09-01T07:36:19.080Z,1014.59
2018-09-01T07:37:19.028Z,1014.63
2018-09-01T07:38:19.018Z,1014.67
2018-09-01T07:39:19.009Z,1014.63
2018-09-01T07:40:19.000Z,1014.66
2018-09-01T07:41:18.989Z,1014.63
2018-09-01T07:42:18.990Z,1014.67
2018-09-01T07:43:18.964Z,1014.70
2018-09-01T07:44:18.948Z,1014.71
2018-09-01T07:45:18.933Z,1014.75
2018-09-01T07:46:18.934Z,1014.75
2018-09-01T07:47:18.933Z,1014.77
2018-09-01T07:48:18.902Z,1014.77
2018-09-01T07:49:18.894Z,1014.77
2018-09-01T07:50:18.879Z,1014.83
2018-09-01T07:51:18.872Z,1014.78
2018-09-01T07:52:18.878Z,1014.87
2018-09-01T07:53:18.844Z,1014.85
2018-09-01T07:54:18.840Z,1014.83
2018-09-01T07:55:18.820Z,1014.85
2018-09-01T07:56:18.897Z,1014.86
2018-09-01T07:57:18.821Z,1014.87
2018-09-01T07:58:18.789Z,1014.88
2018-09-01T07:59:18.790Z,1014.89
2018-09-01T08:00:18.772Z,1014.91
2018-09-01T08:01:18.749Z,1014.89
2018-09-01T08:02:18.768Z,1014.91
2018-09-01T08:03:18.732Z,1014.94
2018-09-01T08:04:18.719Z,1014.96
2018-09-01T08:05:18.710Z,1014.99
2018-09-01T08:06:18.699Z,1015.01
2018-09-01T08:07:18.724Z,1014.98
2018-09-01T08:08:18.673Z,1014.97
2018-09-01T08:09:18.665Z,1014.97
2018-09-01T08:10:18.645Z,1014.97
2018-09-01T08:11:18.638Z,1014.96
2018-09-01T08:12:18.645Z,1014.96
2018-09-01T08:13:18.616Z,1015.03
2018-09-01T08:14:18.700Z,1015.04
2018-09-01T08:15:18.594Z,1015.00
2018-09-01T08:16:18.577Z,1015.01
2018-09-01T08:17:18.594Z,1015.06
2018-09-01T08:18:18.551Z,1014.78
2018-09-01T08:19:18.546Z,1015.14
2018-09-01T08:20:18.535Z,1015.10
2018-09-01T08:21:18.524Z,1015.05
2018-09-01T08:22:18.529Z,1015.09
2018-09-01T08:23:18.496Z,1015.12
2018-09-01T08:24:18.487Z,1015.13
2018-09-01T08:25:18.472Z,1015.12
2018-09-01T08:26:18.471Z,1015.14
2018-09-01T08:27:18.479Z,1015.09
2018-09-01T08:28:18.439Z,1015.09
2018-09-01T08:29:18.436Z,1015.12
2018-09-01T08:30:18.416Z,1015.09
2018-09-01T08:31:18.410Z,1015.10
2018-09-01T08:32:18.422Z,1015.15
2018-09-01T08:33:18.386Z,1015.18
2018-09-01T08:34:18.387Z,1015.15
2018-09-01T08:35:18.359Z,1015.16
2018-09-01T08:36:18.359Z,1015.16
2018-09-01T08:37:18.365Z,1015.23
2018-09-01T08:38:18.331Z,1015.24
2018-09-01T08:39:18.321Z,1015.24
2018-09-01T08:40:18.380Z,1015.17
2018-09-01T08:41:18.296Z,1015.20
2018-09-01T08:42:18.305Z,1015.20
2018-09-01T08:43:18.279Z,1015.21
2018-09-01T08:44:18.263Z,1015.21
2018-09-01T08:45:18.265Z,1015.22
2018-09-01T08:46:18.241Z,1015.24
2018-09-01T08:47:18.258Z,1015.24
2018-09-01T08:48:18.217Z,1015.23
2018-09-01T08:49:18.207Z,1015.27
2018-09-01T08:50:18.197Z,1015.25
2018-09-01T08:51:18.190Z,1015.25
2018-09-01T08:52:18.216Z,1015.31
2018-09-01T08:53:18.171Z,1015.30
2018-09-01T08:54:18.147Z,1015.36
2018-09-01T08:55:18.139Z,1015.33
2018-09-01T08:56:18.136Z,1015.34
2018-09-01T08:57:18.138Z,1015.30
2018-09-01T08:58:18.106Z,1015.33
2018-09-01T08:59:18.095Z,1015.34
2018-09-01T09:00:18.086Z,1015.36
2018-09-01T09:01:18.080Z,1015.38
2018-09-01T09:02:18.081Z,1015.42
2018-09-01T09:03:18.056Z,1015.40
2018-09-01T09:04:18.041Z,1015.42
2018-09-01T09:05:18.026Z,1015.43
2018-09-01T09:06:18.023Z,1015.47
2018-09-01T09:07:18.033Z,1015.48
2018-09-01T09:08:17.994Z,1015.46
2018-09-01T09:09:17.987Z,1015.51
2018-09-01T09:10:17.981Z,1015.49
2018-09-01T09:11:17.967Z,1014.94
2018-09-01T09:12:17.975Z,1015.44
2018-09-01T09:13:17.946Z,1015.46
2018-09-01T09:14:17.947Z,1015.47
2018-09-01T09:15:17.914Z,1015.50
2018-09-01T09:16:17.917Z,1015.52
2018-09-01T09:17:17.920Z,1015.26
2018-09-01T09:18:17.884Z,1015.47
2018-09-01T09:19:17.879Z,1015.07
2018-09-01T09:20:17.859Z,1015.50
2018-09-01T09:21:17.851Z,1015.41
2018-09-01T09:22:17.881Z,1015.05
2018-09-01T09:23:17.828Z,1015.02
2018-09-01T09:24:17.821Z,1015.49
2018-09-01T09:25:17.807Z,1015.23
2018-09-01T09:26:17.794Z,1015.48
2018-09-01T09:27:17.801Z,1015.48
2018-09-01T09:28:17.773Z,1015.55
2018-09-01T09:29:17.759Z,1015.55
2018-09-01T09:30:17.757Z,1015.52
2018-09-01T09:31:17.746Z,1015.55
2018-09-01T09:32:17.749Z,1015.54
2018-09-01T09:33:17.719Z,1015.59
2018-09-01T09:34:17.712Z,1015.34
2018-09-01T09:35:17.692Z,1015.08
2018-09-01T09:36:17.691Z,1015.56
2018-09-01T09:37:17.701Z,1015.57
2018-09-01T09:38:17.664Z,1015.53
2018-09-01T09:39:17.651Z,1015.52
2018-09-01T09:40:17.648Z,1015.07
2018-09-01T09:41:17.637Z,1015.21
2018-09-01T09:42:17.654Z,1015.47
2018-09-01T09:43:17.610Z,1015.54
2018-09-01T09:44:17.594Z,1015.11
2018-09-01T09:45:17.589Z,1015.57
2018-09-01T09:46:17.574Z,1015.51
2018-09-01T09:47:17.585Z,1015.53
2018-09-01T09:48:17.559Z,1015.52
2018-09-01T09:49:17.539Z,1015.52
2018-09-01T09:50:17.538Z,1015.54
2018-09-01T09:51:17.527Z,1015.53
2018-09-01T09:52:17.530Z,1015.52
2018-09-01T09:53:17.509Z,1015.53
2018-09-01T09:54:17.485Z,1015.51
2018-09-01T09:55:17.478Z,1015.51
2018-09-01T09:56:17.470Z,1015.51
2018-09-01T09:57:17.485Z,1015.55
2018-09-01T09:58:17.493Z,1015.50
2018-09-01T09:59:17.434Z,1015.53
2018-09-01T10:00:17.424Z,1015.54
2018-09-01T10:01:17.412Z,1015.23
2018-09-01T10:02:17.425Z,1015.56
2018-09-01T10:03:17.397Z,1015.30
2018-09-01T10:04:17.379Z,1015.17
2018-09-01T10:05:17.394Z,1015.51
2018-09-01T10:06:17.359Z,1015.50
2018-09-01T10:07:17.371Z,1015.33
2018-09-01T10:08:17.347Z,1015.04
2018-09-01T10:09:17.328Z,1015.10
2018-09-01T10:10:17.326Z,1015.09
2018-09-01T10:11:17.305Z,1015.52
2018-09-01T10:12:17.324Z,1015.48
2018-09-01T10:13:17.289Z,1015.50
2018-09-01T10:14:17.281Z,1015.51
2018-09-01T10:15:17.265Z,1015.46
2018-09-01T10:16:17.252Z,1015.06
2018-09-01T10:17:17.273Z,1015.35
2018-09-01T10:18:17.229Z,1015.50
2018-09-01T10:19:17.218Z,1015.46
2018-09-01T10:20:17.285Z,1015.46
2018-09-01T10:21:17.202Z,1015.50
2018-09-01T10:22:17.211Z,1015.55
2018-09-01T10:23:17.188Z,1015.51
2018-09-01T10:24:17.166Z,1015.55
2018-09-01T10:25:17.159Z,1015.56
2018-09-01T10:26:17.150Z,1015.55
2018-09-01T10:27:17.163Z,1015.52
2018-09-01T10:28:17.123Z,1015.36
2018-09-01T10:29:17.120Z,1015.10
2018-09-01T10:30:17.108Z,1015.01
2018-09-01T10:31:17.098Z,1015.50
2018-09-01T10:32:17.111Z,1015.47
2018-09-01T10:33:17.074Z,1015.47
2018-09-01T10:34:17.061Z,1015.46
2018-09-01T10:35:17.051Z,1015.48
2018-09-01T10:36:17.041Z,1015.46
2018-09-01T10:37:17.058Z,1015.45
2018-09-01T10:38:17.021Z,1015.39
2018-09-01T10:39:17.009Z,1015.41
2018-09-01T10:40:16.996Z,1015.44
2018-09-01T10:41:16.989Z,1015.45
2018-09-01T10:42:16.999Z,1015.40
2018-09-01T10:43:16.964Z,1015.43
2018-09-01T10:44:16.961Z,1015.44
2018-09-01T10:45:16.944Z,1015.44
2018-09-01T10:46:16.941Z,1015.33
2018-09-01T10:47:16.955Z,1015.34
2018-09-01T10:48:16.912Z,1015.29
2018-09-01T10:49:16.912Z,1014.95
2018-09-01T10:50:16.892Z,1015.39
2018-09-01T10:51:16.887Z,1015.47
2018-09-01T10:52:16.898Z,1015.41
2018-09-01T10:53:16.866Z,1015.10
2018-09-01T10:54:16.855Z,1015.06
2018-09-01T10:55:16.844Z,1015.02
2018-09-01T10:56:16.836Z,1015.45
2018-09-01T10:57:16.844Z,1015.41
2018-09-01T10:58:16.818Z,1015.17
2018-09-01T10:59:16.882Z,1014.94
2018-09-01T11:00:16.791Z,1014.91
2018-09-01T11:01:16.791Z,1014.88
2018-09-01T11:02:16.792Z,1014.85
2018-09-01T11:03:16.776Z,1014.85
2018-09-01T11:04:16.758Z,1014.82
2018-09-01T11:05:16.737Z,1014.80
2018-09-01T11:06:16.733Z,1014.88
2018-09-01T11:07:16.745Z,1014.90
2018-09-01T11:08:16.702Z,1014.91
2018-09-01T11:09:16.696Z,1014.92
2018-09-01T11:10:16.688Z,1014.90
2018-09-01T11:11:16.671Z,1014.91
2018-09-01T11:12:16.690Z,1014.85
2018-09-01T11:13:16.652Z,1014.83
2018-09-01T11:14:16.646Z,1014.79
2018-09-01T11:15:16.626Z,1014.75
2018-09-01T11:16:16.623Z,1014.82
2018-09-01T11:17:16.632Z,1014.84
2018-09-01T11:18:16.601Z,1014.86
2018-09-01T11:19:16.635Z,1014.89
2018-09-01T11:20:16.693Z,1014.84
2018-09-01T11:21:16.569Z,1014.86
2018-09-01T11:22:16.573Z,1014.82
2018-09-01T11:23:16.542Z,1014.76
2018-09-01T11:24:16.529Z,1014.79
2018-09-01T11:25:16.514Z,1014.79
2018-09-01T11:26:16.509Z,1014.75
2018-09-01T11:27:16.517Z,1014.76
2018-09-01T11:28:16.485Z,1014.72
2018-09-01T11:29:16.475Z,1014.76
2018-09-01T11:30:16.456Z,1014.71
2018-09-01T11:31:16.453Z,1014.74
2018-09-01T11:32:16.457Z,1014.76
2018-09-01T11:33:16.428Z,1014.66
2018-09-01T11:34:16.416Z,1014.67
2018-09-01T11:35:16.404Z,1014.84
2018-09-01T11:36:16.395Z,1014.93
2018-09-01T11:37:16.404Z,1014.98
2018-09-01T11:38:16.366Z,1014.98
2018-09-01T11:39:16.354Z,1014.97
2018-09-01T11:40:16.406Z,1014.98
2018-09-01T11:41:16.330Z,1014.99
2018-09-01T11:42:16.347Z,1014.94
2018-09-01T11:43:16.351Z,1014.95
2018-09-01T11:44:16.300Z,1014.97
2018-09-01T11:45:16.291Z,1014.99
2018-09-01T11:46:16.276Z,1014.98
2018-09-01T11:47:16.286Z,1015.01
2018-09-01T11:48:16.260Z,1014.98
2018-09-01T11:49:16.241Z,1014.98
2018-09-01T11:50:16.240Z,1014.98
2018-09-01T11:51:16.235Z,1014.99
2018-09-01T11:52:16.260Z,1014.94
2018-09-01T11:53:16.341Z,1014.91
2018-09-01T11:54:16.188Z,1014.96
2018-09-01T11:55:16.179Z,1014.99
2018-09-01T11:56:16.177Z,1014.96
2018-09-01T11:57:16.179Z,1014.97
2018-09-01T11:58:16.154Z,1015.00
2018-09-01T11:59:16.145Z,1014.92
2018-09-01T12:00:16.128Z,1014.61
2018-09-01T12:01:16.123Z,1014.70
2018-09-01T12:02:16.157Z,1014.85
2018-09-01T12:03:16.102Z,1014.84
2018-09-01T12:04:16.083Z,1014.91
2018-09-01T12:05:16.086Z,1014.65
2018-09-01T12:06:16.061Z,1014.70
2018-09-01T12:07:16.074Z,1014.86
2018-09-01T12:08:16.050Z,1014.69
2018-09-01T12:09:16.090Z,1014.87
2018-09-01T12:10:16.041Z,1014.91
2018-09-01T12:11:16.020Z,1014.92
2018-09-01T12:12:16.022Z,1014.70
2018-09-01T12:13:15.999Z,1014.70
2018-09-01T12:14:15.978Z,1014.68
2018-09-01T12:15:15.968Z,1014.65
2018-09-01T12:16:15.971Z,1014.68
2018-09-01T12:17:15.972Z,1014.60
2018-09-01T12:18:15.952Z,1014.65
2018-09-01T12:19:15.933Z,1014.73
2018-09-01T12:20:15.919Z,1014.69
2018-09-01T12:21:15.914Z,1014.79
2018-09-01T12:22:15.956Z,1014.60
2018-09-01T12:23:15.884Z,1014.59
2018-09-01T12:24:15.878Z,1014.56
2018-09-01T12:25:15.899Z,1014.62
2018-09-01T12:26:15.856Z,1014.56
2018-09-01T12:27:15.869Z,1014.78
2018-09-01T12:28:15.935Z,1014.76
2018-09-01T12:29:15.818Z,1014.76
2018-09-01T12:30:15.816Z,1014.70
2018-09-01T12:31:15.800Z,1014.77
2018-09-01T12:32:15.813Z,1014.77
2018-09-01T12:33:15.784Z,1014.73
2018-09-01T12:34:15.765Z,1014.73
2018-09-01T12:35:15.813Z,1014.63
2018-09-01T12:36:15.803Z,1014.50
2018-09-01T12:37:15.766Z,1014.49
2018-09-01T12:38:15.722Z,1014.64
2018-09-01T12:39:15.718Z,1014.61
2018-09-01T12:40:15.703Z,1014.64
2018-09-01T12:41:15.690Z,1014.58
2018-09-01T12:42:15.709Z,1014.37
2018-09-01T12:43:15.669Z,1014.63
2018-09-01T12:44:15.654Z,1014.59
2018-09-01T12:45:15.646Z,1014.55
2018-09-01T12:46:15.639Z,1014.54
2018-09-01T12:47:15.649Z,1014.44
2018-09-01T12:48:15.613Z,1014.47
2018-09-01T12:49:15.605Z,1014.45
2018-09-01T12:50:15.597Z,1014.43
2018-09-01T12:51:15.585Z,1014.44
2018-09-01T12:52:15.595Z,1014.40
2018-09-01T12:53:15.595Z,1014.45
2018-09-01T12:54:15.557Z,1014.44
2018-09-01T12:55:15.541Z,1014.43
2018-09-01T12:56:15.534Z,1014.44
2018-09-01T12:57:15.549Z,1014.38
2018-09-01T12:58:15.507Z,1014.38
2018-09-01T12:59:15.497Z,1014.47
2018-09-01T13:00:15.491Z,1014.51
2018-09-01T13:01:15.482Z,1014.40
2018-09-01T13:02:15.499Z,1014.47
2018-09-01T13:03:15.467Z,1014.44
2018-09-01T13:04:15.447Z,1014.44
2018-09-01T13:05:15.446Z,1014.28
2018-09-01T13:06:15.434Z,1014.19
2018-09-01T13:07:15.447Z,1014.18
2018-09-01T13:08:15.412Z,1014.34
2018-09-01T13:09:15.405Z,1014.16
2018-09-01T13:10:15.392Z,1014.18
2018-09-01T13:11:15.376Z,1014.15
2018-09-01T13:12:15.400Z,1014.16
2018-09-01T13:13:15.353Z,1014.15
2018-09-01T13:14:15.350Z,1014.16
2018-09-01T13:15:15.340Z,1014.43
2018-09-01T13:16:15.320Z,1014.37
2018-09-01T13:17:15.341Z,1014.44
2018-09-01T13:18:15.299Z,1014.40
2018-09-01T13:19:15.295Z,1014.39
2018-09-01T13:20:15.280Z,1014.44
2018-09-01T13:21:15.268Z,1014.45
2018-09-01T13:22:15.288Z,1014.45
2018-09-01T13:23:15.252Z,1014.42
2018-09-01T13:24:15.237Z,1014.46
2018-09-01T13:25:15.249Z,1014.48
2018-09-01T13:26:15.217Z,1014.44
2018-09-01T13:27:15.226Z,1014.48
2018-09-01T13:28:15.198Z,1014.51
2018-09-01T13:29:15.185Z,1014.49
2018-09-01T13:30:15.180Z,1014.46
2018-09-01T13:31:15.166Z,1014.47
2018-09-01T13:32:15.172Z,1014.44
2018-09-01T13:33:15.139Z,1014.41
2018-09-01T13:34:15.205Z,1014.46
2018-09-01T13:35:15.130Z,1014.20
2018-09-01T13:36:15.109Z,1014.28
2018-09-01T13:37:15.130Z,1014.29
2018-09-01T13:38:15.112Z,1014.19
2018-09-01T13:39:15.087Z,1014.19
2018-09-01T13:40:15.182Z,1014.21
2018-09-01T13:41:15.057Z,1014.20
2018-09-01T13:42:15.073Z,1014.20
2018-09-01T13:43:15.036Z,1014.16